sensor_id;sensor_type;location;lat;lon;timestamp;pressure;altitude;pressure_sealevel;temperature;humidity
31483;BME280;18103;52.246;8.052;2023-04-10T00:01:44;101086.31;;;8.43;63.59
31483;BME280;18103;52.246;8.052;2023-04-10T00:04:09;101080.66;;;8.51;63.14
31483;BME280;18103;52.246;8.052;2023-04-10T00:06:35;101074.56;;;8.34;63.82
31483;BME280;18103;52.246;8.052;2023-04-10T00:09:04;101077.78;;;8.39;63.88
31483;BME280;18103;52.246;8.052;2023-04-10T00:11:30;101074.38;;;8.37;63.63
31483;BME280;18103;52.246;8.052;2023-04-10T00:13:58;101072.94;;;8.32;64.19
31483;BME280;18103;52.246;8.052;2023-04-10T00:16:23;101069.97;;;8.38;63.89
31483;BME280;18103;52.246;8.052;2023-04-10T00:18:48;101069.66;;;8.28;64.14
31483;BME280;18103;52.246;8.052;2023-04-10T00:21:16;101058.00;;;8.32;63.91
31483;BME280;18103;52.246;8.052;2023-04-10T00:23:41;101061.22;;;8.37;63.87
31483;BME280;18103;52.246;8.052;2023-04-10T00:26:07;101053.00;;;8.28;64.27
31483;BME280;18103;52.246;8.052;2023-04-10T00:28:33;101045.31;;;8.25;64.42
31483;BME280;18103;52.246;8.052;2023-04-10T00:31:04;101041.91;;;8.22;64.51
31483;BME280;18103;52.246;8.052;2023-04-10T00:33:34;101045.59;;;8.20;64.64
31483;BME280;18103;52.246;8.052;2023-04-10T00:35:59;101045.50;;;8.21;64.60
31483;BME280;18103;52.246;8.052;2023-04-10T00:38:27;101044.06;;;8.16;64.74
31483;BME280;18103;52.246;8.052;2023-04-10T00:40:52;101050.16;;;8.16;64.72
31483;BME280;18103;52.246;8.052;2023-04-10T00:43:18;101040.66;;;8.14;64.66
31483;BME280;18103;52.246;8.052;2023-04-10T00:45:44;101035.66;;;8.09;64.73
31483;BME280;18103;52.246;8.052;2023-04-10T00:48:11;101037.78;;;8.02;65.08
31483;BME280;18103;52.246;8.052;2023-04-10T00:50:36;101025.56;;;8.01;65.11
31483;BME280;18103;52.246;8.052;2023-04-10T00:53:02;101030.59;;;8.06;65.30
31483;BME280;18103;52.246;8.052;2023-04-10T00:55:27;101033.88;;;8.10;64.89
31483;BME280;18103;52.246;8.052;2023-04-10T00:57:55;101034.16;;;8.05;65.24
31483;BME280;18103;52.246;8.052;2023-04-10T01:00:21;101027.00;;;8.07;65.04
31483;BME280;18103;52.246;8.052;2023-04-10T01:02:47;101024.66;;;8.02;65.13
31483;BME280;18103;52.246;8.052;2023-04-10T01:05:16;101029.63;;;8.07;65.32
31483;BME280;18103;52.246;8.052;2023-04-10T01:07:58;101027.41;;;8.15;64.54
31483;BME280;18103;52.246;8.052;2023-04-10T01:10:35;101029.03;;;8.18;64.82
31483;BME280;18103;52.246;8.052;2023-04-10T01:13:42;101028.84;;;8.21;64.59
31483;BME280;18103;52.246;8.052;2023-04-10T01:16:18;101028.19;;;8.17;64.76
31483;BME280;18103;52.246;8.052;2023-04-10T01:18:51;101020.31;;;8.17;64.72
31483;BME280;18103;52.246;8.052;2023-04-10T01:21:20;101026.41;;;8.18;64.66
31483;BME280;18103;52.246;8.052;2023-04-10T01:24:17;101023.50;;;8.22;64.86
31483;BME280;18103;52.246;8.052;2023-04-10T01:29:30;101023.44;;;8.08;65.09
31483;BME280;18103;52.246;8.052;2023-04-10T01:32:12;101021.50;;;8.12;65.40
31483;BME280;18103;52.246;8.052;2023-04-10T01:34:48;101019.13;;;8.07;65.51
31483;BME280;18103;52.246;8.052;2023-04-10T01:37:30;101020.63;;;8.11;65.32
31483;BME280;18103;52.246;8.052;2023-04-10T01:40:08;101008.03;;;8.02;65.87
31483;BME280;18103;52.246;8.052;2023-04-10T01:42:38;101015.84;;;8.03;65.66
31483;BME280;18103;52.246;8.052;2023-04-10T01:45:06;101009.78;;;8.01;65.57
31483;BME280;18103;52.246;8.052;2023-04-10T01:47:35;101011.50;;;8.02;65.55
31483;BME280;18103;52.246;8.052;2023-04-10T01:50:04;101006.50;;;7.98;65.64
31483;BME280;18103;52.246;8.052;2023-04-10T01:52:31;101002.88;;;8.00;65.72
31483;BME280;18103;52.246;8.052;2023-04-10T01:54:57;101002.78;;;8.02;65.69
31483;BME280;18103;52.246;8.052;2023-04-10T01:57:25;101003.03;;;7.97;65.59
31483;BME280;18103;52.246;8.052;2023-04-10T01:59:54;101002.09;;;7.98;65.81
31483;BME280;18103;52.246;8.052;2023-04-10T02:02:20;100992.78;;;7.93;66.14
31483;BME280;18103;52.246;8.052;2023-04-10T02:04:47;100990.06;;;7.94;65.97
31483;BME280;18103;52.246;8.052;2023-04-10T02:07:34;100988.28;;;7.95;65.82
31483;BME280;18103;52.246;8.052;2023-04-10T02:12:38;100978.19;;;7.87;66.21
31483;BME280;18103;52.246;8.052;2023-04-10T02:15:07;100979.81;;;7.90;66.25
31483;BME280;18103;52.246;8.052;2023-04-10T02:17:37;100971.66;;;7.94;66.10
31483;BME280;18103;52.246;8.052;2023-04-10T02:20:06;100976.41;;;8.03;65.85
31483;BME280;18103;52.246;8.052;2023-04-10T02:22:33;100978.88;;;7.91;66.04
31483;BME280;18103;52.246;8.052;2023-04-10T02:24:59;100974.22;;;7.80;66.36
31483;BME280;18103;52.246;8.052;2023-04-10T02:27:33;100982.25;;;7.93;65.99
31483;BME280;18103;52.246;8.052;2023-04-10T02:29:59;100979.13;;;7.86;65.94
31483;BME280;18103;52.246;8.052;2023-04-10T02:32:25;100974.66;;;7.88;66.05
31483;BME280;18103;52.246;8.052;2023-04-10T02:34:51;100970.22;;;7.88;65.69
31483;BME280;18103;52.246;8.052;2023-04-10T02:37:17;100968.47;;;7.89;66.09
31483;BME280;18103;52.246;8.052;2023-04-10T02:39:45;100966.75;;;7.88;65.89
31483;BME280;18103;52.246;8.052;2023-04-10T02:42:10;100971.44;;;7.83;65.73
31483;BME280;18103;52.246;8.052;2023-04-10T02:44:36;100976.69;;;7.83;66.20
31483;BME280;18103;52.246;8.052;2023-04-10T02:47:01;100967.28;;;7.79;66.44
31483;BME280;18103;52.246;8.052;2023-04-10T02:49:26;100971.59;;;7.80;66.22
31483;BME280;18103;52.246;8.052;2023-04-10T02:51:52;100973.13;;;7.84;66.35
31483;BME280;18103;52.246;8.052;2023-04-10T02:54:17;100961.09;;;7.80;66.13
31483;BME280;18103;52.246;8.052;2023-04-10T02:56:43;100967.78;;;7.85;66.06
31483;BME280;18103;52.246;8.052;2023-04-10T02:59:08;100963.53;;;7.83;65.87
31483;BME280;18103;52.246;8.052;2023-04-10T03:01:33;100969.63;;;7.83;66.05
31483;BME280;18103;52.246;8.052;2023-04-10T03:04:05;100964.66;;;7.79;66.06
31483;BME280;18103;52.246;8.052;2023-04-10T03:06:31;100961.38;;;7.75;66.21
31483;BME280;18103;52.246;8.052;2023-04-10T03:08:56;100963.44;;;7.84;65.38
31483;BME280;18103;52.246;8.052;2023-04-10T03:11:22;100947.88;;;7.81;66.02
31483;BME280;18103;52.246;8.052;2023-04-10T03:13:49;100948.97;;;7.77;65.42
31483;BME280;18103;52.246;8.052;2023-04-10T03:16:17;100942.44;;;7.84;65.29
31483;BME280;18103;52.246;8.052;2023-04-10T03:18:43;100947.78;;;7.83;65.28
31483;BME280;18103;52.246;8.052;2023-04-10T03:21:08;100939.06;;;7.82;65.51
31483;BME280;18103;52.246;8.052;2023-04-10T03:23:37;100945.97;;;7.83;65.39
31483;BME280;18103;52.246;8.052;2023-04-10T03:26:02;100935.97;;;7.90;65.08
31483;BME280;18103;52.246;8.052;2023-04-10T03:28:31;100932.84;;;7.83;65.27
31483;BME280;18103;52.246;8.052;2023-04-10T03:31:04;100927.53;;;7.85;65.28
31483;BME280;18103;52.246;8.052;2023-04-10T03:33:32;100931.81;;;7.86;65.08
31483;BME280;18103;52.246;8.052;2023-04-10T03:35:57;100929.28;;;7.84;65.40
31483;BME280;18103;52.246;8.052;2023-04-10T03:38:23;100923.78;;;7.89;65.04
31483;BME280;18103;52.246;8.052;2023-04-10T03:40:53;100935.31;;;7.86;65.06
31483;BME280;18103;52.246;8.052;2023-04-10T03:43:18;100918.69;;;7.86;65.14
31483;BME280;18103;52.246;8.052;2023-04-10T03:45:44;100921.50;;;7.83;65.04
31483;BME280;18103;52.246;8.052;2023-04-10T03:48:11;100928.72;;;7.79;64.64
31483;BME280;18103;52.246;8.052;2023-04-10T03:50:37;100928.34;;;7.85;65.05
31483;BME280;18103;52.246;8.052;2023-04-10T03:53:02;100924.03;;;7.84;64.68
31483;BME280;18103;52.246;8.052;2023-04-10T03:55:30;100920.47;;;7.85;64.68
31483;BME280;18103;52.246;8.052;2023-04-10T03:57:58;100922.81;;;7.90;64.27
31483;BME280;18103;52.246;8.052;2023-04-10T04:00:24;100919.19;;;7.93;64.20
31483;BME280;18103;52.246;8.052;2023-04-10T04:02:51;100914.50;;;7.98;63.84
31483;BME280;18103;52.246;8.052;2023-04-10T04:05:19;100924.16;;;7.97;63.81
31483;BME280;18103;52.246;8.052;2023-04-10T04:07:46;100922.22;;;8.01;63.86
31483;BME280;18103;52.246;8.052;2023-04-10T04:10:12;100923.03;;;8.01;63.55
31483;BME280;18103;52.246;8.052;2023-04-10T04:12:41;100916.75;;;8.04;63.24
31483;BME280;18103;52.246;8.052;2023-04-10T04:15:07;100921.00;;;8.07;63.55
31483;BME280;18103;52.246;8.052;2023-04-10T04:17:35;100919.97;;;8.09;63.66
31483;BME280;18103;52.246;8.052;2023-04-10T04:20:00;100917.88;;;8.00;63.75
31483;BME280;18103;52.246;8.052;2023-04-10T04:22:26;100916.75;;;8.04;63.26
31483;BME280;18103;52.246;8.052;2023-04-10T04:24:52;100927.19;;;8.05;63.57
31483;BME280;18103;52.246;8.052;2023-04-10T04:27:17;100924.41;;;8.09;63.46
31483;BME280;18103;52.246;8.052;2023-04-10T04:29:45;100936.78;;;8.07;63.41
31483;BME280;18103;52.246;8.052;2023-04-10T04:32:13;100935.06;;;8.05;63.39
31483;BME280;18103;52.246;8.052;2023-04-10T04:34:38;100935.06;;;8.05;63.63
31483;BME280;18103;52.246;8.052;2023-04-10T04:37:07;100931.16;;;8.13;62.95
31483;BME280;18103;52.246;8.052;2023-04-10T04:39:32;100933.56;;;8.01;63.43
31483;BME280;18103;52.246;8.052;2023-04-10T04:41:58;100936.41;;;8.13;62.89
31483;BME280;18103;52.246;8.052;2023-04-10T04:44:23;100931.63;;;8.05;63.34
31483;BME280;18103;52.246;8.052;2023-04-10T04:46:48;100932.63;;;8.02;63.30
31483;BME280;18103;52.246;8.052;2023-04-10T04:49:16;100934.97;;;8.07;63.08
31483;BME280;18103;52.246;8.052;2023-04-10T04:51:42;100934.53;;;8.15;63.22
31483;BME280;18103;52.246;8.052;2023-04-10T04:54:07;100933.03;;;8.11;63.36
31483;BME280;18103;52.246;8.052;2023-04-10T04:56:32;100930.28;;;7.98;63.84
31483;BME280;18103;52.246;8.052;2023-04-10T04:58:58;100928.59;;;8.11;63.39
31483;BME280;18103;52.246;8.052;2023-04-10T05:01:23;100931.69;;;8.03;63.49
31483;BME280;18103;52.246;8.052;2023-04-10T05:03:54;100936.38;;;7.98;63.80
31483;BME280;18103;52.246;8.052;2023-04-10T05:06:19;100938.72;;;8.03;63.36
31483;BME280;18103;52.246;8.052;2023-04-10T05:08:45;100926.16;;;8.08;63.46
31483;BME280;18103;52.246;8.052;2023-04-10T05:11:11;100928.06;;;8.06;63.29
31483;BME280;18103;52.246;8.052;2023-04-10T05:13:36;100927.09;;;8.07;63.37
31483;BME280;18103;52.246;8.052;2023-04-10T05:16:01;100927.50;;;8.15;63.21
31483;BME280;18103;52.246;8.052;2023-04-10T05:18:27;100924.78;;;8.17;63.21
31483;BME280;18103;52.246;8.052;2023-04-10T05:20:52;100919.06;;;8.10;63.39
31483;BME280;18103;52.246;8.052;2023-04-10T05:23:18;100919.50;;;8.17;63.04
31483;BME280;18103;52.246;8.052;2023-04-10T05:25:46;100921.69;;;8.25;62.63
31483;BME280;18103;52.246;8.052;2023-04-10T05:28:11;100920.69;;;8.27;62.75
31483;BME280;18103;52.246;8.052;2023-04-10T05:30:37;100926.59;;;8.31;62.31
31483;BME280;18103;52.246;8.052;2023-04-10T05:33:02;100918.59;;;8.32;62.40
31483;BME280;18103;52.246;8.052;2023-04-10T05:35:27;100919.28;;;8.36;62.34
31483;BME280;18103;52.246;8.052;2023-04-10T05:37:53;100912.69;;;8.43;62.51
31483;BME280;18103;52.246;8.052;2023-04-10T05:40:21;100918.81;;;8.44;62.58
31483;BME280;18103;52.246;8.052;2023-04-10T05:42:50;100921.09;;;8.50;62.60
31483;BME280;18103;52.246;8.052;2023-04-10T05:45:16;100916.31;;;8.56;62.41
31483;BME280;18103;52.246;8.052;2023-04-10T05:47:42;100916.59;;;8.52;62.41
31483;BME280;18103;52.246;8.052;2023-04-10T05:50:08;100913.31;;;8.63;61.90
31483;BME280;18103;52.246;8.052;2023-04-10T05:52:34;100917.44;;;8.67;61.68
31483;BME280;18103;52.246;8.052;2023-04-10T05:54:59;100911.53;;;8.78;61.65
31483;BME280;18103;52.246;8.052;2023-04-10T05:57:27;100904.38;;;8.80;61.41
31483;BME280;18103;52.246;8.052;2023-04-10T05:59:55;100902.78;;;8.92;61.37
31483;BME280;18103;52.246;8.052;2023-04-10T06:02:23;100903.81;;;8.89;61.24
31483;BME280;18103;52.246;8.052;2023-04-10T06:04:51;100897.22;;;8.96;61.07
31483;BME280;18103;52.246;8.052;2023-04-10T06:07:16;100895.34;;;8.98;60.82
31483;BME280;18103;52.246;8.052;2023-04-10T06:09:42;100899.75;;;8.98;61.08
31483;BME280;18103;52.246;8.052;2023-04-10T06:12:07;100901.34;;;9.00;61.24
31483;BME280;18103;52.246;8.052;2023-04-10T06:14:35;100893.03;;;9.06;60.67
31483;BME280;18103;52.246;8.052;2023-04-10T06:17:03;100895.41;;;9.11;60.75
31483;BME280;18103;52.246;8.052;2023-04-10T06:19:28;100890.59;;;9.18;61.24
31483;BME280;18103;52.246;8.052;2023-04-10T06:21:53;100886.13;;;9.33;60.13
31483;BME280;18103;52.246;8.052;2023-04-10T06:24:21;100884.34;;;9.33;60.21
31483;BME280;18103;52.246;8.052;2023-04-10T06:26:46;100882.38;;;9.50;60.11
31483;BME280;18103;52.246;8.052;2023-04-10T06:29:11;100891.78;;;9.54;59.66
31483;BME280;18103;52.246;8.052;2023-04-10T06:31:39;100885.69;;;9.66;60.12
31483;BME280;18103;52.246;8.052;2023-04-10T06:34:07;100887.63;;;9.77;58.63
31483;BME280;18103;52.246;8.052;2023-04-10T06:36:37;100882.69;;;9.85;58.79
31483;BME280;18103;52.246;8.052;2023-04-10T06:39:03;100883.16;;;9.92;58.34
31483;BME280;18103;52.246;8.052;2023-04-10T06:41:30;100885.38;;;10.11;58.01
31483;BME280;18103;52.246;8.052;2023-04-10T06:43:56;100877.78;;;10.19;58.04
31483;BME280;18103;52.246;8.052;2023-04-10T06:46:26;100878.44;;;10.36;57.75
31483;BME280;18103;52.246;8.052;2023-04-10T06:48:53;100871.06;;;10.54;57.47
31483;BME280;18103;52.246;8.052;2023-04-10T06:51:19;100883.69;;;10.61;56.87
31483;BME280;18103;52.246;8.052;2023-04-10T06:53:44;100882.38;;;10.93;56.73
31483;BME280;18103;52.246;8.052;2023-04-10T06:56:10;100876.66;;;10.99;56.22
31483;BME280;18103;52.246;8.052;2023-04-10T06:58:35;100885.63;;;11.09;56.01
31483;BME280;18103;52.246;8.052;2023-04-10T07:01:05;100875.06;;;11.34;55.40
31483;BME280;18103;52.246;8.052;2023-04-10T07:03:31;100879.25;;;11.60;55.32
31483;BME280;18103;52.246;8.052;2023-04-10T07:05:59;100888.31;;;11.69;54.47
31483;BME280;18103;52.246;8.052;2023-04-10T07:08:26;100874.53;;;11.77;54.70
31483;BME280;18103;52.246;8.052;2023-04-10T07:10:51;100876.00;;;11.92;54.36
31483;BME280;18103;52.246;8.052;2023-04-10T07:13:16;100867.13;;;11.93;53.47
31483;BME280;18103;52.246;8.052;2023-04-10T07:15:42;100867.47;;;12.36;54.06
31483;BME280;18103;52.246;8.052;2023-04-10T07:18:07;100869.63;;;12.53;53.32
31483;BME280;18103;52.246;8.052;2023-04-10T07:20:32;100863.88;;;12.48;53.07
31483;BME280;18103;52.246;8.052;2023-04-10T07:22:58;100853.59;;;12.66;52.54
31483;BME280;18103;52.246;8.052;2023-04-10T07:25:26;100850.84;;;12.68;52.79
31483;BME280;18103;52.246;8.052;2023-04-10T07:27:56;100851.91;;;12.88;51.97
31483;BME280;18103;52.246;8.052;2023-04-10T07:30:21;100849.75;;;12.93;51.60
31483;BME280;18103;52.246;8.052;2023-04-10T07:32:47;100840.38;;;13.21;50.70
31483;BME280;18103;52.246;8.052;2023-04-10T07:35:14;100839.91;;;13.16;51.13
31483;BME280;18103;52.246;8.052;2023-04-10T07:37:42;100829.78;;;13.21;50.20
31483;BME280;18103;52.246;8.052;2023-04-10T07:40:11;100826.09;;;13.45;50.33
31483;BME280;18103;52.246;8.052;2023-04-10T07:42:37;100818.72;;;13.48;50.07
31483;BME280;18103;52.246;8.052;2023-04-10T07:45:05;100814.28;;;13.70;49.13
31483;BME280;18103;52.246;8.052;2023-04-10T07:47:30;100817.69;;;13.82;48.97
31483;BME280;18103;52.246;8.052;2023-04-10T07:49:56;100814.78;;;13.64;49.13
31483;BME280;18103;52.246;8.052;2023-04-10T07:52:23;100811.34;;;13.94;48.51
31483;BME280;18103;52.246;8.052;2023-04-10T07:54:49;100804.81;;;13.98;48.00
31483;BME280;18103;52.246;8.052;2023-04-10T07:57:14;100807.75;;;14.26;47.44
31483;BME280;18103;52.246;8.052;2023-04-10T07:59:40;100799.22;;;14.32;47.79
31483;BME280;18103;52.246;8.052;2023-04-10T08:02:06;100811.53;;;14.33;46.93
31483;BME280;18103;52.246;8.052;2023-04-10T08:04:33;100790.22;;;14.14;47.11
31483;BME280;18103;52.246;8.052;2023-04-10T08:06:59;100797.56;;;14.31;47.02
31483;BME280;18103;52.246;8.052;2023-04-10T08:09:27;100788.78;;;14.41;46.66
31483;BME280;18103;52.246;8.052;2023-04-10T08:11:52;100801.00;;;13.91;46.52
31483;BME280;18103;52.246;8.052;2023-04-10T08:14:17;100803.72;;;14.01;46.98
31483;BME280;18103;52.246;8.052;2023-04-10T08:16:46;100783.38;;;13.90;47.53
31483;BME280;18103;52.246;8.052;2023-04-10T08:19:11;100776.59;;;14.38;47.89
31483;BME280;18103;52.246;8.052;2023-04-10T08:21:36;100775.63;;;14.80;46.69
31483;BME280;18103;52.246;8.052;2023-04-10T08:24:03;100766.63;;;14.61;47.29
31483;BME280;18103;52.246;8.052;2023-04-10T08:26:28;100771.88;;;14.01;45.72
31483;BME280;18103;52.246;8.052;2023-04-10T08:28:58;100775.84;;;14.16;46.55
31483;BME280;18103;52.246;8.052;2023-04-10T08:31:25;100760.84;;;14.06;46.67
31483;BME280;18103;52.246;8.052;2023-04-10T08:33:51;100757.34;;;14.05;45.95
31483;BME280;18103;52.246;8.052;2023-04-10T08:36:16;100759.00;;;13.96;45.91
31483;BME280;18103;52.246;8.052;2023-04-10T08:38:45;100748.56;;;14.14;46.54
31483;BME280;18103;52.246;8.052;2023-04-10T08:41:16;100748.22;;;14.29;46.97
31483;BME280;18103;52.246;8.052;2023-04-10T08:43:41;100752.16;;;14.34;47.04
31483;BME280;18103;52.246;8.052;2023-04-10T08:46:08;100742.25;;;14.46;46.50
31483;BME280;18103;52.246;8.052;2023-04-10T08:49:03;100747.69;;;14.45;46.33
31483;BME280;18103;52.246;8.052;2023-04-10T08:54:07;100736.19;;;14.25;45.51
31483;BME280;18103;52.246;8.052;2023-04-10T08:56:40;100722.91;;;14.25;46.64
31483;BME280;18103;52.246;8.052;2023-04-10T08:59:09;100718.59;;;14.33;46.37
31483;BME280;18103;52.246;8.052;2023-04-10T09:01:34;100705.66;;;14.60;47.30
31483;BME280;18103;52.246;8.052;2023-04-10T09:04:00;100703.22;;;14.27;46.38
31483;BME280;18103;52.246;8.052;2023-04-10T09:06:27;100707.56;;;14.38;46.76
31483;BME280;18103;52.246;8.052;2023-04-10T09:08:56;100706.38;;;14.81;46.97
31483;BME280;18103;52.246;8.052;2023-04-10T09:12:02;100713.19;;;14.54;46.15
31483;BME280;18103;52.246;8.052;2023-04-10T09:14:33;100697.53;;;14.61;46.31
31483;BME280;18103;52.246;8.052;2023-04-10T09:17:23;100696.03;;;14.98;46.13
31483;BME280;18103;52.246;8.052;2023-04-10T09:19:53;100700.25;;;15.10;46.44
31483;BME280;18103;52.246;8.052;2023-04-10T09:22:33;100679.28;;;14.97;46.39
31483;BME280;18103;52.246;8.052;2023-04-10T09:24:59;100689.03;;;14.97;46.52
31483;BME280;18103;52.246;8.052;2023-04-10T09:27:31;100682.25;;;15.42;46.04
31483;BME280;18103;52.246;8.052;2023-04-10T09:29:58;100667.19;;;15.32;45.46
31483;BME280;18103;52.246;8.052;2023-04-10T09:35:04;100661.56;;;15.83;45.60
31483;BME280;18103;52.246;8.052;2023-04-10T09:37:34;100647.22;;;15.56;44.82
31483;BME280;18103;52.246;8.052;2023-04-10T09:40:00;100651.00;;;15.53;44.38
31483;BME280;18103;52.246;8.052;2023-04-10T09:42:30;100640.06;;;15.56;45.04
31483;BME280;18103;52.246;8.052;2023-04-10T09:44:57;100633.25;;;15.44;44.34
31483;BME280;18103;52.246;8.052;2023-04-10T09:47:25;100634.19;;;15.63;44.30
31483;BME280;18103;52.246;8.052;2023-04-10T09:49:55;100630.41;;;15.55;44.57
31483;BME280;18103;52.246;8.052;2023-04-10T09:52:33;100619.50;;;15.86;44.31
31483;BME280;18103;52.246;8.052;2023-04-10T09:55:06;100623.97;;;15.96;44.56
31483;BME280;18103;52.246;8.052;2023-04-10T09:57:35;100615.78;;;16.25;43.15
31483;BME280;18103;52.246;8.052;2023-04-10T10:00:05;100608.19;;;16.30;43.45
31483;BME280;18103;52.246;8.052;2023-04-10T10:02:35;100625.91;;;16.57;42.86
31483;BME280;18103;52.246;8.052;2023-04-10T10:05:03;100616.34;;;16.47;42.00
31483;BME280;18103;52.246;8.052;2023-04-10T10:07:30;100613.94;;;16.25;41.43
31483;BME280;18103;52.246;8.052;2023-04-10T10:09:56;100607.97;;;16.59;41.71
31483;BME280;18103;52.246;8.052;2023-04-10T10:12:33;100605.97;;;16.62;41.19
31483;BME280;18103;52.246;8.052;2023-04-10T10:15:13;100594.78;;;16.40;41.20
31483;BME280;18103;52.246;8.052;2023-04-10T10:18:00;100593.94;;;16.57;41.46
31483;BME280;18103;52.246;8.052;2023-04-10T10:20:30;100597.69;;;16.29;41.80
31483;BME280;18103;52.246;8.052;2023-04-10T10:23:01;100590.38;;;16.49;41.30
31483;BME280;18103;52.246;8.052;2023-04-10T10:25:27;100587.16;;;16.45;40.89
31483;BME280;18103;52.246;8.052;2023-04-10T10:27:54;100595.38;;;16.34;40.03
31483;BME280;18103;52.246;8.052;2023-04-10T10:30:24;100563.88;;;16.47;40.20
31483;BME280;18103;52.246;8.052;2023-04-10T10:32:50;100586.31;;;16.81;39.77
31483;BME280;18103;52.246;8.052;2023-04-10T10:35:16;100562.19;;;16.46;38.23
31483;BME280;18103;52.246;8.052;2023-04-10T10:37:42;100543.75;;;16.71;38.89
31483;BME280;18103;52.246;8.052;2023-04-10T10:40:23;100552.56;;;17.16;39.18
31483;BME280;18103;52.246;8.052;2023-04-10T10:43:13;100547.94;;;16.73;38.76
31483;BME280;18103;52.246;8.052;2023-04-10T10:45:51;100546.41;;;16.89;38.85
31483;BME280;18103;52.246;8.052;2023-04-10T10:48:18;100541.72;;;16.91;39.18
31483;BME280;18103;52.246;8.052;2023-04-10T10:50:58;100546.91;;;16.92;39.12
31483;BME280;18103;52.246;8.052;2023-04-10T10:53:42;100541.47;;;16.84;39.20
31483;BME280;18103;52.246;8.052;2023-04-10T10:56:34;100522.91;;;16.66;38.25
31483;BME280;18103;52.246;8.052;2023-04-10T10:58:59;100523.81;;;16.57;37.74
31483;BME280;18103;52.246;8.052;2023-04-10T11:01:26;100520.56;;;16.71;38.12
31483;BME280;18103;52.246;8.052;2023-04-10T11:03:51;100513.66;;;16.34;37.69
31483;BME280;18103;52.246;8.052;2023-04-10T11:06:46;100501.22;;;16.43;38.63
31483;BME280;18103;52.246;8.052;2023-04-10T11:12:08;100493.53;;;16.58;38.02
31483;BME280;18103;52.246;8.052;2023-04-10T11:14:39;100477.63;;;16.48;38.05
31483;BME280;18103;52.246;8.052;2023-04-10T11:17:05;100480.44;;;16.47;36.99
31483;BME280;18103;52.246;8.052;2023-04-10T11:19:57;100489.56;;;16.62;37.64
31483;BME280;18103;52.246;8.052;2023-04-10T11:22:27;100473.78;;;16.77;37.72
31483;BME280;18103;52.246;8.052;2023-04-10T11:24:55;100475.28;;;16.98;36.96
31483;BME280;18103;52.246;8.052;2023-04-10T11:27:40;100463.03;;;16.87;37.75
31483;BME280;18103;52.246;8.052;2023-04-10T11:30:26;100459.75;;;16.93;36.88
31483;BME280;18103;52.246;8.052;2023-04-10T11:32:53;100444.44;;;16.95;37.32
31483;BME280;18103;52.246;8.052;2023-04-10T11:35:19;100463.88;;;16.87;37.26
31483;BME280;18103;52.246;8.052;2023-04-10T11:37:44;100463.94;;;16.69;36.77
31483;BME280;18103;52.246;8.052;2023-04-10T11:40:10;100454.97;;;16.79;37.16
31483;BME280;18103;52.246;8.052;2023-04-10T11:42:36;100438.09;;;16.96;37.13
31483;BME280;18103;52.246;8.052;2023-04-10T11:45:25;100433.00;;;17.19;37.38
31483;BME280;18103;52.246;8.052;2023-04-10T11:47:54;100437.91;;;16.89;37.11
31483;BME280;18103;52.246;8.052;2023-04-10T11:50:22;100429.78;;;16.99;36.77
31483;BME280;18103;52.246;8.052;2023-04-10T11:52:50;100425.84;;;17.12;36.83
31483;BME280;18103;52.246;8.052;2023-04-10T11:55:16;100408.22;;;17.35;37.53
31483;BME280;18103;52.246;8.052;2023-04-10T11:57:43;100415.34;;;17.18;36.63
31483;BME280;18103;52.246;8.052;2023-04-10T12:00:09;100416.34;;;17.17;36.47
31483;BME280;18103;52.246;8.052;2023-04-10T12:02:48;100399.38;;;17.35;36.28
31483;BME280;18103;52.246;8.052;2023-04-10T12:05:14;100406.22;;;17.37;36.14
31483;BME280;18103;52.246;8.052;2023-04-10T12:07:39;100409.84;;;17.20;36.21
31483;BME280;18103;52.246;8.052;2023-04-10T12:10:08;100391.50;;;17.25;36.19
31483;BME280;18103;52.246;8.052;2023-04-10T12:12:36;100389.13;;;17.05;35.71
31483;BME280;18103;52.246;8.052;2023-04-10T12:15:02;100391.91;;;17.55;36.53
31483;BME280;18103;52.246;8.052;2023-04-10T12:17:28;100390.53;;;17.26;35.89
31483;BME280;18103;52.246;8.052;2023-04-10T12:19:54;100374.88;;;17.31;36.09
31483;BME280;18103;52.246;8.052;2023-04-10T12:22:22;100373.41;;;17.61;35.54
31483;BME280;18103;52.246;8.052;2023-04-10T12:24:51;100379.41;;;17.55;35.54
31483;BME280;18103;52.246;8.052;2023-04-10T12:27:24;100383.38;;;17.26;35.27
31483;BME280;18103;52.246;8.052;2023-04-10T12:29:54;100369.22;;;17.51;35.08
31483;BME280;18103;52.246;8.052;2023-04-10T12:32:20;100365.72;;;17.58;35.39
31483;BME280;18103;52.246;8.052;2023-04-10T12:34:53;100342.03;;;17.55;34.86
31483;BME280;18103;52.246;8.052;2023-04-10T12:37:45;100355.06;;;17.50;34.80
31483;BME280;18103;52.246;8.052;2023-04-10T12:40:11;100361.56;;;17.48;34.31
31483;BME280;18103;52.246;8.052;2023-04-10T12:42:39;100337.69;;;17.71;34.62
31483;BME280;18103;52.246;8.052;2023-04-10T12:45:06;100346.56;;;17.79;34.94
31483;BME280;18103;52.246;8.052;2023-04-10T12:47:43;100321.66;;;17.87;34.95
31483;BME280;18103;52.246;8.052;2023-04-10T12:50:11;100320.13;;;18.26;35.36
31483;BME280;18103;52.246;8.052;2023-04-10T12:52:40;100323.47;;;18.20;34.82
31483;BME280;18103;52.246;8.052;2023-04-10T12:55:08;100313.75;;;18.27;34.78
31483;BME280;18103;52.246;8.052;2023-04-10T12:57:35;100326.31;;;18.10;34.28
31483;BME280;18103;52.246;8.052;2023-04-10T13:00:00;100306.81;;;17.85;34.47
31483;BME280;18103;52.246;8.052;2023-04-10T13:02:27;100308.84;;;17.66;34.05
31483;BME280;18103;52.246;8.052;2023-04-10T13:04:53;100290.63;;;17.86;34.37
31483;BME280;18103;52.246;8.052;2023-04-10T13:07:19;100283.13;;;17.98;34.26
31483;BME280;18103;52.246;8.052;2023-04-10T13:09:47;100287.75;;;18.12;35.43
31483;BME280;18103;52.246;8.052;2023-04-10T13:12:12;100292.63;;;17.84;34.57
31483;BME280;18103;52.246;8.052;2023-04-10T13:14:40;100284.81;;;17.74;34.84
31483;BME280;18103;52.246;8.052;2023-04-10T13:17:05;100257.13;;;17.75;34.88